Tofield, Canada
Current Conditions -  °F | °C
As of 6:00 PM on Wednesday 22 Oct 2014 (Local Time) from CYXD Reporting Station
Clear Clear  
Wind Chill: 57°   Ceiling: Unl
Heat Index: 57°   Visibility: 9mi
Dew Point: 30°   Wind: 12mph
Humidity: 36%   Direction: 170°S
Pressure: 29.58"   Gusts: NA
Location:  53.37°N, 112.67°W
Report Text: CYXD 230000Z AUTO 17010KT 9SM CLR 14/M01 A2958 RMK SLP028
Loading
Personal Weather Stations






























Interactive Weather Map
Tropical Storm Tracking
New forecast layout! Learn more

10-Day Weather Forecast

Advertisements
Track Severe Weather on mobile